Terminal Aerodrome Forecast
Issued by NWS

Home | Current Version | Previous Version | Text Only | Print | Product List | Glossary On
Versions: 1 2 3 4 5 6 7 8 9 10 11 12
811
FTUS44 KCRP 122336
TAFLRD
TAF
KLRD 122336Z 1300/1324 08006KT P6SM SKC
     FM130800 12006KT P6SM SCT005
     FM131100 13005KT 2SM BR BKN005
      TEMPO 1311/1315 1/2SM FG BKN002
     FM131600 14010KT P6SM SKC=

USA.gov is the U.S. government's official web portal to all federal, state and local government web resources and services.